createdAt,value
2023-05-13T00:01:48.191Z,9.45
2023-05-13T00:04:16.732Z,7.10
2023-05-13T00:06:45.089Z,12.82
2023-05-13T00:09:12.646Z,9.57
2023-05-13T00:11:41.604Z,10.43
2023-05-13T00:14:11.088Z,11.70
2023-05-13T00:16:38.699Z,10.45
2023-05-13T00:19:06.158Z,13.00
2023-05-13T00:21:34.627Z,12.50
2023-05-13T00:24:02.161Z,10.30
2023-05-13T00:26:30.448Z,12.27
2023-05-13T00:28:59.155Z,10.48
2023-05-13T00:31:28.848Z,9.88
2023-05-13T00:33:56.552Z,12.10
2023-05-13T00:36:24.458Z,10.85
2023-05-13T00:38:51.711Z,17.55
2023-05-13T00:41:20.346Z,15.23
2023-05-13T00:43:47.709Z,12.65
2023-05-13T00:46:18.085Z,13.30
2023-05-13T00:48:45.735Z,13.38
2023-05-13T00:51:19.783Z,11.63
2023-05-13T00:53:47.929Z,12.15
2023-05-13T00:56:20.227Z,11.93
2023-05-13T00:58:47.978Z,12.60
2023-05-13T01:01:45.605Z,11.43
2023-05-13T01:04:31.656Z,12.65
2023-05-13T01:07:23.186Z,14.15
2023-05-13T01:10:11.758Z,13.93
2023-05-13T01:12:47.144Z,13.93
2023-05-13T01:15:25.733Z,10.05
2023-05-13T01:18:00.464Z,14.55
2023-05-13T01:20:28.904Z,11.57
2023-05-13T01:22:57.257Z,10.68
2023-05-13T01:25:26.093Z,11.55
2023-05-13T01:27:54.382Z,11.13
2023-05-13T01:30:24.250Z,10.18
2023-05-13T01:32:53.747Z,16.50
2023-05-13T01:35:22.669Z,10.15
2023-05-13T01:37:50.978Z,15.93
2023-05-13T01:40:32.459Z,10.23
2023-05-13T01:43:01.109Z,16.55
2023-05-13T01:45:30.449Z,10.13
2023-05-13T01:47:59.095Z,75.30
2023-05-13T01:50:26.808Z,102.05
2023-05-13T01:52:55.042Z,56.55
2023-05-13T01:55:23.614Z,32.00
2023-05-13T01:57:53.027Z,20.25
2023-05-13T02:00:20.628Z,15.93
2023-05-13T02:02:47.798Z,17.23
2023-05-13T02:05:15.434Z,11.50
2023-05-13T02:07:46.936Z,13.50
2023-05-13T02:10:14.410Z,11.77
2023-05-13T02:12:41.795Z,15.20
2023-05-13T02:15:09.852Z,18.65
2023-05-13T02:17:37.571Z,14.40
2023-05-13T02:20:05.621Z,15.02
2023-05-13T02:22:33.189Z,15.60
2023-05-13T02:25:01.574Z,11.30
2023-05-13T02:27:29.146Z,14.60
2023-05-13T02:29:56.437Z,12.60
2023-05-13T02:32:24.004Z,14.32
2023-05-13T02:34:51.381Z,14.60
2023-05-13T02:37:19.056Z,15.52
2023-05-13T02:39:46.241Z,14.80
2023-05-13T02:42:13.907Z,13.68
2023-05-13T02:44:41.691Z,15.70
2023-05-13T02:47:09.349Z,13.75
2023-05-13T02:49:38.771Z,14.90
2023-05-13T02:52:06.750Z,15.75
2023-05-13T02:54:34.052Z,13.43
2023-05-13T02:57:01.744Z,15.20
2023-05-13T02:59:30.137Z,17.02
2023-05-13T03:01:58.675Z,14.73
2023-05-13T03:04:26.337Z,17.50
2023-05-13T03:06:53.856Z,16.20
2023-05-13T03:09:22.203Z,14.57
2023-05-13T03:11:51.081Z,20.42
2023-05-13T03:14:18.690Z,15.50
2023-05-13T03:16:46.185Z,15.10
2023-05-13T03:19:13.597Z,16.45
2023-05-13T03:21:42.489Z,14.07
2023-05-13T03:24:10.065Z,15.73
2023-05-13T03:26:37.425Z,17.35
2023-05-13T03:29:04.859Z,17.30
2023-05-13T03:31:32.724Z,16.67
2023-05-13T03:34:00.736Z,22.50
2023-05-13T03:36:28.425Z,19.75
2023-05-13T03:38:57.824Z,13.35
2023-05-13T03:41:26.363Z,13.32
2023-05-13T03:43:55.868Z,14.70
2023-05-13T03:46:23.591Z,13.57
2023-05-13T03:48:50.918Z,16.17
2023-05-13T03:51:17.964Z,20.45
2023-05-13T03:53:45.015Z,16.67
2023-05-13T03:56:12.543Z,16.13
2023-05-13T03:58:45.833Z,17.02
2023-05-13T04:01:13.117Z,14.60
2023-05-13T04:03:41.591Z,14.73
2023-05-13T04:06:09.059Z,13.88
2023-05-13T04:08:36.588Z,13.60
2023-05-13T04:11:04.256Z,12.95
2023-05-13T04:13:33.091Z,12.45
2023-05-13T04:16:00.445Z,13.65
2023-05-13T04:18:29.444Z,16.02
2023-05-13T04:20:57.080Z,13.93
2023-05-13T04:23:24.322Z,16.70
2023-05-13T04:25:52.861Z,16.05
2023-05-13T04:28:22.297Z,12.85
2023-05-13T04:30:56.792Z,13.38
2023-05-13T04:33:24.113Z,12.73
2023-05-13T04:35:51.438Z,13.88
2023-05-13T04:38:18.929Z,12.27
2023-05-13T04:40:45.964Z,13.35
2023-05-13T04:43:13.730Z,14.98
2023-05-13T04:45:41.263Z,15.73
2023-05-13T04:48:08.872Z,13.65
2023-05-13T04:50:36.561Z,14.13
2023-05-13T04:53:04.385Z,14.85
2023-05-13T04:55:31.984Z,14.52
2023-05-13T04:58:01.349Z,18.42
2023-05-13T05:00:28.863Z,16.35
2023-05-13T05:02:57.149Z,18.00
2023-05-13T05:05:24.751Z,16.38
2023-05-13T05:07:52.180Z,15.00
2023-05-13T05:10:20.904Z,17.52
2023-05-13T05:12:49.066Z,15.77
2023-05-13T05:15:16.626Z,14.70
2023-05-13T05:17:45.792Z,16.88
2023-05-13T05:20:13.976Z,15.35
2023-05-13T05:22:42.487Z,18.10
2023-05-13T05:25:12.031Z,16.80
2023-05-13T05:27:39.673Z,16.33
2023-05-13T05:30:09.549Z,19.63
2023-05-13T05:32:38.178Z,17.02
2023-05-13T05:35:06.002Z,19.55
2023-05-13T05:37:35.570Z,16.75
2023-05-13T05:40:03.083Z,18.30
2023-05-13T05:42:31.398Z,20.73
2023-05-13T05:44:59.001Z,18.13
2023-05-13T05:47:26.440Z,15.40
2023-05-13T05:49:53.787Z,16.08
2023-05-13T05:52:22.202Z,19.40
2023-05-13T05:54:49.639Z,15.95
2023-05-13T05:57:18.279Z,15.13
2023-05-13T05:59:45.640Z,16.63
2023-05-13T06:02:12.856Z,18.45
2023-05-13T06:04:42.386Z,19.58
2023-05-13T06:07:09.835Z,20.75
2023-05-13T06:09:37.537Z,13.80
2023-05-13T06:12:06.372Z,15.50
2023-05-13T06:14:33.932Z,17.42
2023-05-13T06:17:02.520Z,17.13
2023-05-13T06:19:31.983Z,16.80
2023-05-13T06:22:00.492Z,13.50
2023-05-13T06:24:29.377Z,16.65
2023-05-13T06:26:57.832Z,15.95
2023-05-13T06:29:25.339Z,16.95
2023-05-13T06:31:52.816Z,15.63
2023-05-13T06:34:20.265Z,18.45
2023-05-13T06:36:53.938Z,17.95
2023-05-13T06:39:21.477Z,21.48
2023-05-13T06:41:48.737Z,14.98
2023-05-13T06:44:16.221Z,17.83
2023-05-13T06:46:43.756Z,18.30
2023-05-13T06:49:12.143Z,15.23
2023-05-13T06:51:39.748Z,15.77
2023-05-13T06:54:07.210Z,21.60
2023-05-13T06:56:35.016Z,16.45
2023-05-13T06:59:02.626Z,16.60
2023-05-13T07:01:30.012Z,14.65
2023-05-13T07:03:58.700Z,17.10
2023-05-13T07:06:26.159Z,15.63
2023-05-13T07:08:53.585Z,15.45
2023-05-13T07:11:21.427Z,14.98
2023-05-13T07:13:51.003Z,21.38
2023-05-13T07:16:24.578Z,15.52
2023-05-13T07:18:52.120Z,17.15
2023-05-13T07:21:21.424Z,14.10
2023-05-13T07:23:49.822Z,16.25
2023-05-13T07:26:17.892Z,18.42
2023-05-13T07:28:45.661Z,16.88
2023-05-13T07:31:12.987Z,22.30
2023-05-13T07:33:40.495Z,19.13
2023-05-13T07:36:07.909Z,15.82
2023-05-13T07:38:35.451Z,17.17
2023-05-13T07:41:03.003Z,19.27
2023-05-13T07:43:41.961Z,16.48
2023-05-13T07:46:09.585Z,16.15
2023-05-13T07:48:37.415Z,16.95
2023-05-13T07:51:07.111Z,17.58
2023-05-13T07:53:35.937Z,16.50
2023-05-13T07:56:04.558Z,14.45
2023-05-13T07:58:31.880Z,13.75
2023-05-13T08:00:59.695Z,14.82
2023-05-13T08:03:27.224Z,13.70
2023-05-13T08:05:54.987Z,18.55
2023-05-13T08:08:29.969Z,16.35
2023-05-13T08:10:57.362Z,13.27
2023-05-13T08:13:31.615Z,14.38
2023-05-13T08:16:03.098Z,10.90
2023-05-13T08:18:31.835Z,14.30
2023-05-13T08:21:00.231Z,13.73
2023-05-13T08:23:46.540Z,12.65
2023-05-13T08:26:16.199Z,17.25
2023-05-13T08:28:45.031Z,16.98
2023-05-13T08:31:14.705Z,13.10
2023-05-13T08:33:43.908Z,13.93
2023-05-13T08:36:13.527Z,13.43
2023-05-13T08:38:41.524Z,13.23
2023-05-13T08:41:11.777Z,12.57
2023-05-13T08:43:40.141Z,10.15
2023-05-13T08:46:11.381Z,10.90
2023-05-13T08:48:41.271Z,18.50
2023-05-13T08:51:12.866Z,14.15
2023-05-13T08:53:41.336Z,14.00
2023-05-13T08:56:10.112Z,14.95
2023-05-13T08:58:44.591Z,14.82
2023-05-13T09:01:15.190Z,16.38
2023-05-13T09:03:55.692Z,11.65
2023-05-13T09:06:23.560Z,14.10
2023-05-13T09:08:52.154Z,10.98
2023-05-13T09:11:20.065Z,12.30
2023-05-13T09:14:00.614Z,11.68
2023-05-13T09:16:34.289Z,11.05
2023-05-13T09:21:40.403Z,10.25
2023-05-13T09:24:12.825Z,11.80
2023-05-13T09:26:42.673Z,12.93
2023-05-13T09:29:29.556Z,8.93
2023-05-13T09:32:01.794Z,10.18
2023-05-13T09:34:34.935Z,8.82
2023-05-13T09:37:10.683Z,11.93
2023-05-13T09:39:42.527Z,10.07
2023-05-13T09:42:17.366Z,9.13
2023-05-13T09:44:50.310Z,11.95
2023-05-13T09:47:20.572Z,10.05
2023-05-13T09:50:12.015Z,10.40
2023-05-13T09:52:48.205Z,11.57
2023-05-13T09:55:17.122Z,9.68
2023-05-13T09:57:47.931Z,13.93
2023-05-13T10:00:32.265Z,13.57
2023-05-13T10:03:02.725Z,9.45
2023-05-13T10:05:31.857Z,12.70
2023-05-13T10:08:05.006Z,8.85
2023-05-13T10:10:35.047Z,12.30
2023-05-13T10:13:16.765Z,10.63
2023-05-13T10:15:56.399Z,8.05
2023-05-13T10:18:25.112Z,8.38
2023-05-13T10:20:55.598Z,12.82
2023-05-13T10:23:24.875Z,10.02
2023-05-13T10:25:56.353Z,9.02
2023-05-13T10:28:25.852Z,7.25
2023-05-13T10:30:53.289Z,7.93
2023-05-13T10:33:22.294Z,6.68
2023-05-13T10:36:14.013Z,9.60
2023-05-13T10:39:14.506Z,8.43
2023-05-13T10:42:11.363Z,9.13
2023-05-13T10:44:38.629Z,6.65
2023-05-13T10:47:06.010Z,8.90
2023-05-13T10:49:35.533Z,10.63
2023-05-13T10:52:14.724Z,6.10
2023-05-13T10:54:45.021Z,7.28
2023-05-13T10:57:13.858Z,8.35
2023-05-13T11:00:17.100Z,6.82
2023-05-13T11:02:44.399Z,8.63
2023-05-13T11:05:21.681Z,7.80
2023-05-13T11:07:59.254Z,7.72
2023-05-13T11:10:32.231Z,6.10
2023-05-13T11:13:36.010Z,5.18
2023-05-13T11:16:08.509Z,6.23
2023-05-13T11:18:54.730Z,5.53
2023-05-13T11:21:39.972Z,11.57
2023-05-13T11:24:08.436Z,7.93
2023-05-13T11:26:50.778Z,12.02
2023-05-13T11:29:29.056Z,11.35
2023-05-13T11:32:00.490Z,6.18
2023-05-13T11:34:31.841Z,6.40
2023-05-13T11:37:05.090Z,8.70
2023-05-13T11:39:34.371Z,8.32
2023-05-13T11:42:07.127Z,9.10
2023-05-13T11:44:35.406Z,8.48
2023-05-13T11:47:08.571Z,4.45
2023-05-13T11:49:47.550Z,4.88
2023-05-13T11:52:17.809Z,6.82
2023-05-13T11:54:57.799Z,8.50
2023-05-13T11:57:33.084Z,8.90
2023-05-13T12:00:07.908Z,6.18
2023-05-13T12:02:38.098Z,5.72
2023-05-13T12:05:09.999Z,4.38
2023-05-13T12:07:39.967Z,7.03
2023-05-13T12:10:08.474Z,6.32
2023-05-13T12:12:40.489Z,5.95
2023-05-13T12:15:20.198Z,5.43
2023-05-13T12:17:48.738Z,4.35
2023-05-13T12:20:23.707Z,4.07
2023-05-13T12:22:53.469Z,5.82
2023-05-13T12:25:44.581Z,6.03
2023-05-13T12:28:25.838Z,5.63
2023-05-13T12:30:56.773Z,5.65
2023-05-13T12:33:43.862Z,6.68
2023-05-13T12:36:34.003Z,8.35
2023-05-13T12:39:09.722Z,4.85
2023-05-13T12:41:41.699Z,7.05
2023-05-13T12:44:14.004Z,6.35
2023-05-13T12:46:55.417Z,6.03
2023-05-13T12:49:22.790Z,7.22
2023-05-13T12:51:51.952Z,3.92
2023-05-13T12:54:19.367Z,4.40
2023-05-13T12:56:46.792Z,5.75
2023-05-13T12:59:14.740Z,3.83
2023-05-13T13:01:43.176Z,5.35
2023-05-13T13:06:44.242Z,3.45
2023-05-13T13:09:13.813Z,5.35
2023-05-13T13:11:41.164Z,4.97
2023-05-13T13:14:08.713Z,4.65
2023-05-13T13:16:36.447Z,4.55
2023-05-13T13:19:03.996Z,6.72
2023-05-13T13:21:31.298Z,5.72
2023-05-13T13:23:58.333Z,10.73
2023-05-13T13:26:25.801Z,6.07
2023-05-13T13:28:54.153Z,11.52
2023-05-13T13:31:22.274Z,3.63
2023-05-13T13:33:49.601Z,5.45
2023-05-13T13:36:19.817Z,7.75
2023-05-13T13:38:48.150Z,5.82
2023-05-13T13:41:15.718Z,7.55
2023-05-13T13:43:49.333Z,4.35
2023-05-13T13:46:16.919Z,6.75
2023-05-13T13:48:44.513Z,6.60
2023-05-13T13:51:18.999Z,6.40
2023-05-13T13:53:47.827Z,6.10
2023-05-13T13:56:15.460Z,7.00
2023-05-13T13:58:49.503Z,6.00
2023-05-13T14:01:17.195Z,6.88
2023-05-13T14:03:45.235Z,4.47
2023-05-13T14:06:13.749Z,4.95
2023-05-13T14:08:41.140Z,5.47
2023-05-13T14:11:08.716Z,5.43
2023-05-13T14:13:36.532Z,7.38
2023-05-13T14:16:05.068Z,6.68
2023-05-13T14:18:38.332Z,3.78
2023-05-13T14:21:05.688Z,5.88
2023-05-13T14:23:34.265Z,4.93
2023-05-13T14:26:08.985Z,5.38
2023-05-13T14:28:43.261Z,6.97
2023-05-13T14:31:10.717Z,7.20
2023-05-13T14:33:38.473Z,5.35
2023-05-13T14:36:08.386Z,4.95
2023-05-13T14:38:35.940Z,7.25
2023-05-13T14:41:04.500Z,5.72
2023-05-13T14:43:31.689Z,6.22
2023-05-13T14:45:59.236Z,4.25
2023-05-13T14:48:27.716Z,3.63
2023-05-13T14:50:55.161Z,7.47
2023-05-13T14:53:23.281Z,4.22
2023-05-13T14:55:51.562Z,4.82
2023-05-13T14:58:20.155Z,4.55
2023-05-13T15:00:49.072Z,6.07
2023-05-13T15:03:16.520Z,4.80
2023-05-13T15:05:45.071Z,3.70
2023-05-13T15:08:12.481Z,4.32
2023-05-13T15:10:39.902Z,6.78
2023-05-13T15:13:07.359Z,4.72
2023-05-13T15:15:35.931Z,5.03
2023-05-13T15:18:04.490Z,5.90
2023-05-13T15:20:31.760Z,4.18
2023-05-13T15:23:00.405Z,6.80
2023-05-13T15:25:30.832Z,5.35
2023-05-13T15:27:58.977Z,5.18
2023-05-13T15:30:28.600Z,7.57
2023-05-13T15:32:56.106Z,7.35
2023-05-13T15:35:25.567Z,4.38
2023-05-13T15:37:52.993Z,6.38
2023-05-13T15:40:20.612Z,6.68
2023-05-13T15:42:48.748Z,6.15
2023-05-13T15:45:17.303Z,5.63
2023-05-13T15:47:44.973Z,4.63
2023-05-13T15:50:13.194Z,7.53
2023-05-13T15:52:40.515Z,6.82
2023-05-13T15:55:09.279Z,8.15
2023-05-13T15:57:36.627Z,6.25
2023-05-13T16:00:04.009Z,6.40
2023-05-13T16:02:37.765Z,5.82
2023-05-13T16:07:33.234Z,6.47
2023-05-13T16:10:00.571Z,10.10
2023-05-13T16:12:31.432Z,8.48
2023-05-13T16:14:58.586Z,8.13
2023-05-13T16:17:26.150Z,9.35
2023-05-13T16:19:53.425Z,7.57
2023-05-13T16:22:38.406Z,6.68
2023-05-13T16:25:12.227Z,6.75
2023-05-13T16:30:08.863Z,8.82
2023-05-13T16:32:36.040Z,9.25
2023-05-13T16:35:04.295Z,5.25
2023-05-13T16:37:35.420Z,6.45
2023-05-13T16:40:03.280Z,8.52
2023-05-13T16:42:30.779Z,8.75
2023-05-13T16:44:58.216Z,5.70
2023-05-13T16:47:25.376Z,4.13
2023-05-13T16:50:00.673Z,4.35
2023-05-13T16:52:27.827Z,5.88
2023-05-13T16:54:58.437Z,8.20
2023-05-13T16:57:26.298Z,6.45
2023-05-13T16:59:53.748Z,8.55
2023-05-13T17:02:20.797Z,12.07
2023-05-13T17:04:47.935Z,8.35
2023-05-13T17:07:15.428Z,6.25
2023-05-13T17:09:42.660Z,5.18
2023-05-13T17:12:10.057Z,5.50
2023-05-13T17:14:37.145Z,5.47
2023-05-13T17:17:05.862Z,4.70
2023-05-13T17:19:39.227Z,7.10
2023-05-13T17:22:06.716Z,6.50
2023-05-13T17:24:34.231Z,4.97
2023-05-13T17:27:01.585Z,6.32
2023-05-13T17:29:28.781Z,5.20
2023-05-13T17:31:56.109Z,7.00
2023-05-13T17:34:23.354Z,7.18
2023-05-13T17:36:50.510Z,5.05
2023-05-13T17:39:17.858Z,5.22
2023-05-13T17:41:45.302Z,6.70
2023-05-13T17:44:14.045Z,6.38
2023-05-13T17:46:41.216Z,6.63
2023-05-13T17:49:08.896Z,6.30
2023-05-13T17:51:36.703Z,6.13
2023-05-13T17:54:04.304Z,6.03
2023-05-13T17:56:32.667Z,7.25
2023-05-13T17:59:00.265Z,6.50
2023-05-13T18:01:27.748Z,4.65
2023-05-13T18:03:55.911Z,4.97
2023-05-13T18:06:24.316Z,6.65
2023-05-13T18:08:51.625Z,4.40
2023-05-13T18:11:19.277Z,5.72
2023-05-13T18:13:47.533Z,10.25
2023-05-13T18:16:16.138Z,4.75
2023-05-13T18:18:45.091Z,5.38
2023-05-13T18:21:12.512Z,7.10
2023-05-13T18:23:39.992Z,6.20
2023-05-13T18:26:07.398Z,8.32
2023-05-13T18:28:34.861Z,5.47
2023-05-13T18:31:02.379Z,7.25
2023-05-13T18:33:29.818Z,7.43
2023-05-13T18:35:57.626Z,4.68
2023-05-13T18:38:25.312Z,5.68
2023-05-13T18:40:53.666Z,7.78
2023-05-13T18:43:21.297Z,7.60
2023-05-13T18:45:48.733Z,8.25
2023-05-13T18:48:18.101Z,8.45
2023-05-13T18:50:46.547Z,7.80
2023-05-13T18:53:14.080Z,7.03
2023-05-13T18:55:41.552Z,8.43
2023-05-13T18:58:09.069Z,8.07
2023-05-13T19:00:37.687Z,8.75
2023-05-13T19:03:05.204Z,7.70
2023-05-13T19:05:33.391Z,9.45
2023-05-13T19:08:01.020Z,8.90
2023-05-13T19:10:29.991Z,7.32
2023-05-13T19:12:57.454Z,7.70
2023-05-13T19:15:27.411Z,7.00
2023-05-13T19:18:01.449Z,7.10
2023-05-13T19:20:30.048Z,8.70
2023-05-13T19:22:57.768Z,7.63
2023-05-13T19:25:25.465Z,8.73
2023-05-13T19:27:53.952Z,10.00
2023-05-13T19:30:22.870Z,13.13
2023-05-13T19:32:50.277Z,6.10
2023-05-13T19:35:17.877Z,7.05
2023-05-13T19:37:45.263Z,7.13
2023-05-13T19:40:14.682Z,7.38
2023-05-13T19:42:42.363Z,9.70
2023-05-13T19:45:11.141Z,9.98
2023-05-13T19:47:39.734Z,9.57
2023-05-13T19:50:09.382Z,11.15
2023-05-13T19:52:36.920Z,9.32
2023-05-13T19:55:04.826Z,9.88
2023-05-13T19:57:32.575Z,10.07
2023-05-13T20:00:00.237Z,10.30
2023-05-13T20:02:28.844Z,12.68
2023-05-13T20:04:57.828Z,10.40
2023-05-13T20:07:25.433Z,13.32
2023-05-13T20:09:54.067Z,10.27
2023-05-13T20:12:21.918Z,13.60
2023-05-13T20:14:52.256Z,11.23
2023-05-13T20:17:21.652Z,15.43
2023-05-13T20:19:54.451Z,26.05
2023-05-13T20:22:22.538Z,22.67
2023-05-13T20:24:54.769Z,22.75
2023-05-13T20:27:22.983Z,18.73
2023-05-13T20:29:51.395Z,31.33
2023-05-13T20:32:25.065Z,42.65
2023-05-13T20:37:23.503Z,22.98
2023-05-13T20:39:52.709Z,23.15
2023-05-13T20:42:23.702Z,19.45
2023-05-13T20:44:51.822Z,15.98
2023-05-13T20:47:20.059Z,16.38
2023-05-13T20:49:47.386Z,21.15
2023-05-13T20:52:15.128Z,39.03
2023-05-13T20:54:43.429Z,28.33
2023-05-13T20:57:11.883Z,21.00
2023-05-13T20:59:41.503Z,12.57
2023-05-13T21:02:08.943Z,14.15
2023-05-13T21:04:36.862Z,11.50
2023-05-13T21:07:05.377Z,10.32
2023-05-13T21:09:33.019Z,14.70
2023-05-13T21:12:00.474Z,11.48
2023-05-13T21:14:27.740Z,11.23
2023-05-13T21:16:55.856Z,16.15
2023-05-13T21:19:25.424Z,14.18
2023-05-13T21:21:54.873Z,13.25
2023-05-13T21:24:24.268Z,19.80
2023-05-13T21:26:52.500Z,16.92
2023-05-13T21:29:19.777Z,16.80
2023-05-13T21:31:48.091Z,15.15
2023-05-13T21:34:15.578Z,17.80
2023-05-13T21:36:45.483Z,23.58
2023-05-13T21:39:14.029Z,18.65
2023-05-13T21:41:41.749Z,16.35
2023-05-13T21:44:10.137Z,21.50
2023-05-13T21:46:37.511Z,15.13
2023-05-13T21:49:05.193Z,16.55
2023-05-13T21:51:33.640Z,17.77
2023-05-13T21:54:01.225Z,15.80
2023-05-13T21:56:36.180Z,14.18
2023-05-13T21:59:03.559Z,14.57
2023-05-13T22:01:31.015Z,20.67
2023-05-13T22:03:58.189Z,16.55
2023-05-13T22:06:25.587Z,16.48
2023-05-13T22:09:02.040Z,16.60
2023-05-13T22:11:29.632Z,215.73
2023-05-13T22:13:58.030Z,162.35
2023-05-13T22:16:27.733Z,16.60
2023-05-13T22:18:58.889Z,14.18
2023-05-13T22:21:26.375Z,22.58
2023-05-13T22:23:53.994Z,15.43
2023-05-13T22:26:22.148Z,23.70
2023-05-13T22:28:50.576Z,25.35
2023-05-13T22:31:24.329Z,21.05
2023-05-13T22:33:52.062Z,22.60
2023-05-13T22:36:19.464Z,20.75
2023-05-13T22:38:47.150Z,20.33
2023-05-13T22:41:15.416Z,19.42
2023-05-13T22:43:42.914Z,19.38
2023-05-13T22:46:10.329Z,21.15
2023-05-13T22:48:37.845Z,21.85
2023-05-13T22:51:05.471Z,20.08
2023-05-13T22:53:32.861Z,27.48
2023-05-13T22:56:00.225Z,24.60
2023-05-13T22:58:27.842Z,24.35
2023-05-13T23:00:55.193Z,19.02
2023-05-13T23:03:22.250Z,21.90
2023-05-13T23:05:49.658Z,24.33
2023-05-13T23:08:18.069Z,28.88
2023-05-13T23:10:45.631Z,23.63
2023-05-13T23:13:13.156Z,24.45
2023-05-13T23:15:41.692Z,22.00
2023-05-13T23:18:09.024Z,20.90
2023-05-13T23:20:37.444Z,18.60
2023-05-13T23:23:05.957Z,20.40
2023-05-13T23:25:33.320Z,19.55
2023-05-13T23:28:01.043Z,22.85
2023-05-13T23:30:29.909Z,17.40
2023-05-13T23:32:57.486Z,17.63
2023-05-13T23:35:24.932Z,17.25
2023-05-13T23:37:52.191Z,17.35
2023-05-13T23:40:19.859Z,19.60
2023-05-13T23:42:47.223Z,18.25
2023-05-13T23:45:14.879Z,23.42
2023-05-13T23:47:42.423Z,19.90
2023-05-13T23:50:10.172Z,19.65
2023-05-13T23:52:37.674Z,23.20
2023-05-13T23:55:06.168Z,21.17
2023-05-13T23:57:33.832Z,19.25
